Nearby METAR Reports

 

K1A5 - Macon/Franklin, North Carolina, USA
Distance from station: WSW 16mi, 25km
Updated: Tue, 25-Sep-2018 8:45am EDT
Overcast
Overcast
 Wind from calm
Wind: Calm
Barometer: 30.25 inHg , 1024.4 hPa
Clouds: Overcast
Visibility: 10 miles , 16 km
Cloud details: Partly cloudy 800 ft
Mostly cloudy 1900 ft
Overcast 2500 ft
2018/09/25 12:45 K1A5 251245Z AUTO 00000KT 10SM SCT008 BKN019 OVC025 A3025 RMK AO2
KAVL - Asheville, North Carolina, USA
Distance from station: ENE 36mi, 59km
Updated: Tue, 25-Sep-2018 8:54am EDT
Light rain, Mist, Overcast
Light rain, Mist, Overcast
 Wind from SSE
Wind: SSE 6 mph , 9 km/h
Temperature: 66°F , 19°C
Dew Point: 66°F , 19°C
Humidity: 100%
Barometer: 30.27 inHg , 1025.1 hPa
Summary: Light rain, Mist
Clouds: Overcast
Visibility: 5 miles , 8 km
Cloud details: Overcast 300 ft
2018/09/25 12:54 KAVL 251254Z 16005KT 5SM -RA BR OVC003 19/19 A3027 RMK AO2 RAB53 SLP231 P0000 T01890189
 
KRHP - Andrews, North Carolina, USA
Distance from station: WSW 40mi, 64km
Updated: Tue, 25-Sep-2018 8:45am EDT
Overcast
Overcast
 Wind from calm
Wind: Calm
Temperature: 68°F , 20°C
Dew Point: 68°F , 20°C
Humidity: 100%
Barometer: 30.23 inHg , 1023.7 hPa
Clouds: Overcast
Visibility: 7 miles , 11 km
Cloud details: Mostly cloudy 500 ft
Overcast 2100 ft
2018/09/25 12:45 KRHP 251245Z AUTO 00000KT 7SM BKN005 OVC021 20/20 A3023 RMK AO2 P0002 T01950195
KLQK - Pickens, South Carolina, USA
Distance from station: SE 42mi, 68km
Updated: Tue, 25-Sep-2018 8:55am EDT
Mist, Overcast
Mist, Overcast
 Wind from calm
Wind: Calm
Temperature: 68°F , 20°C
Dew Point: 68°F , 20°C
Humidity: 100%
Barometer: 30.23 inHg , 1023.7 hPa
Summary: Mist
Clouds: Overcast
Visibility: 1 3/4 miles , 2.8 km
Cloud details: Overcast 300 ft
2018/09/25 12:55 KLQK 251255Z AUTO 00000KT 1 3/4SM BR OVC003 20/20 A3023 RMK AO2 T02000200
 
KCEU - Clemson, South Carolina, USA
Distance from station: SSE 46mi, 75km
Updated: Tue, 25-Sep-2018 8:54am EDT
Mist, Overcast
Mist, Overcast
 Wind from E
Wind: E 3 mph , 6 km/h
Temperature: 70°F , 21°C
Dew Point: 68°F , 20°C
Humidity: 94%
Barometer: 30.24 inHg , 1024 hPa
Summary: Mist
Clouds: Overcast
Visibility: 2 miles , 3 km
Cloud details: Overcast 400 ft
2018/09/25 12:54 KCEU 251254Z AUTO 10003KT 2SM BR OVC004 21/20 A3024 RMK AO2 RAB1156E08B33E51 SLP232 P0000 T02060200
KTOC - Toccoa, Georgia, USA
Distance from station: S 49mi, 79km
Updated: Tue, 25-Sep-2018 8:55am EDT
Mist, Overcast
Mist, Overcast
 Wind from ENE
Wind: ENE 3 mph , 6 km/h
Temperature: 72°F , 22°C
Dew Point: 72°F , 22°C
Humidity: 100%
Barometer: 30.23 inHg , 1023.7 hPa
Summary: Mist
Clouds: Overcast
Visibility: 3/4 mile , 1.2 km
Cloud details: Overcast 200 ft
2018/09/25 12:55 KTOC 251255Z AUTO 06003KT 3/4SM BR OVC002 22/22 A3023 RMK AO2 T02230220